Time;durP1;ratioP1;P1;durP2;ratioP2;P2;SDS_P1;SDS_P2;PMS_P1;PMS_P2;Temp;Humidity;BMP_temperature;BMP_pressure;BME280_temperature;BME280_humidity;BME280_pressure;Samples;Min_cycle;Max_cycle;Signal;HPM_P1;HPM_P2
2024/03/16 00:00:38;;;;;;;8.90;2.00;;;17.20;99.90;;;;;;5072277;28;20021;-75
2024/03/16 00:03:04;;;;;;;10.20;2.50;;;17.20;99.90;;;;;;5071653;28;20047;-75
2024/03/16 00:05:30;;;;;;;11.45;2.42;;;17.30;99.90;;;;;;5072298;28;20056;-75
2024/03/16 00:07:55;;;;;;;9.10;2.37;;;17.20;99.90;;;;;;5071282;28;20471;-75
2024/03/16 00:10:21;;;;;;;12.63;2.57;;;17.20;99.90;;;;;;5071253;28;20044;-75
2024/03/16 00:12:48;;;;;;;6.17;1.70;;;17.20;99.90;;;;;;5072469;28;20024;-75
2024/03/16 00:15:13;;;;;;;7.72;2.30;;;17.20;99.90;;;;;;5072828;28;20343;-75
2024/03/16 00:17:39;;;;;;;8.20;2.00;;;17.20;99.90;;;;;;5072054;28;20027;-75
2024/03/16 00:20:10;;;;;;;9.30;2.57;;;17.20;99.90;;;;;;5071007;28;20039;-77
2024/03/16 00:22:37;;;;;;;7.85;2.13;;;17.20;99.90;;;;;;5071796;28;20044;-76
2024/03/16 00:25:03;;;;;;;9.07;1.90;;;17.20;99.90;;;;;;5071865;28;20025;-75
2024/03/16 00:27:29;;;;;;;6.43;1.98;;;17.20;99.90;;;;;;5072326;28;20025;-75
2024/03/16 00:29:57;;;;;;;8.67;2.50;;;17.20;99.90;;;;;;5072543;28;20351;-75
2024/03/16 00:32:23;;;;;;;6.72;1.98;;;17.10;99.90;;;;;;5073016;28;20085;-74
2024/03/16 00:34:49;;;;;;;9.13;2.10;;;17.20;99.90;;;;;;5071026;28;20056;-75
2024/03/16 00:37:14;;;;;;;13.33;2.37;;;17.10;99.90;;;;;;5070858;28;20031;-75
2024/03/16 00:39:40;;;;;;;7.43;1.87;;;17.20;99.90;;;;;;5071016;28;20033;-75
2024/03/16 00:42:09;;;;;;;8.83;2.07;;;17.10;99.90;;;;;;5072069;28;20021;-73
2024/03/16 00:44:36;;;;;;;10.48;2.20;;;17.10;99.90;;;;;;5070753;28;20300;-75
2024/03/16 00:47:01;;;;;;;12.50;1.98;;;17.10;99.90;;;;;;5070869;28;20035;-74
2024/03/16 00:49:27;;;;;;;11.37;2.13;;;17.10;99.90;;;;;;5070603;28;20037;-75
2024/03/16 00:51:53;;;;;;;6.87;2.57;;;17.10;99.90;;;;;;5070573;28;20021;-76
2024/03/16 00:54:18;;;;;;;8.30;2.00;;;17.00;99.90;;;;;;5071015;28;20780;-74
2024/03/16 00:56:46;;;;;;;9.73;2.37;;;17.10;99.90;;;;;;5070724;28;20115;-74
2024/03/16 00:59:12;;;;;;;12.18;2.00;;;17.10;99.90;;;;;;5071547;28;20095;-76
2024/03/16 01:01:38;;;;;;;10.25;2.28;;;17.10;99.90;;;;;;5071641;28;20472;-75
2024/03/16 01:04:04;;;;;;;10.83;2.93;;;17.10;99.90;;;;;;5071974;28;20040;-76
2024/03/16 01:06:30;;;;;;;9.63;2.22;;;17.10;99.90;;;;;;5071918;28;20465;-75
2024/03/16 01:08:57;;;;;;;7.93;2.30;;;17.00;99.90;;;;;;5070170;28;20068;-75
2024/03/16 01:11:26;;;;;;;8.73;2.65;;;17.00;99.90;;;;;;5071362;28;20032;-76
2024/03/16 01:13:52;;;;;;;11.07;2.15;;;17.00;99.90;;;;;;5070112;28;20032;-75
2024/03/16 01:16:18;;;;;;;7.20;1.83;;;17.00;99.90;;;;;;5070946;28;20037;-75
2024/03/16 01:18:44;;;;;;;10.77;2.22;;;17.00;99.90;;;;;;5071814;28;20052;-75
2024/03/16 01:21:13;;;;;;;10.80;2.50;;;17.00;99.90;;;;;;5070096;28;20051;-75
2024/03/16 01:23:38;;;;;;;9.13;2.35;;;17.00;99.90;;;;;;5071303;28;20195;-75
2024/03/16 01:26:05;;;;;;;7.47;2.10;;;17.00;99.90;;;;;;5069386;28;20024;-75
2024/03/16 01:28:32;;;;;;;12.05;2.05;;;17.00;99.90;;;;;;5059658;28;20093;-74
2024/03/16 01:30:58;;;;;;;11.23;2.78;;;17.00;99.90;;;;;;5069970;28;20381;-76
2024/03/16 01:33:24;;;;;;;8.27;2.73;;;17.00;99.90;;;;;;5070024;28;20021;-74
2024/03/16 01:35:50;;;;;;;8.60;2.28;;;16.90;99.90;;;;;;5069885;28;20511;-75
2024/03/16 01:38:16;;;;;;;8.33;2.17;;;16.90;99.90;;;;;;5071097;28;20112;-74
2024/03/16 01:40:43;;;;;;;7.43;1.67;;;16.90;99.90;;;;;;5087046;28;20098;-75
2024/03/16 01:43:13;;;;;;;9.98;2.03;;;16.90;99.90;;;;;;5069617;28;20097;-75
2024/03/16 01:45:42;;;;;;;9.73;2.00;;;16.90;99.90;;;;;;5069630;28;20082;-75
2024/03/16 01:48:12;;;;;;;9.85;2.00;;;16.90;99.90;;;;;;5071053;28;20021;-75
2024/03/16 01:50:39;;;;;;;7.75;2.67;;;16.90;99.90;;;;;;5069230;28;20058;-77
2024/03/16 01:53:06;;;;;;;8.65;2.00;;;16.90;99.90;;;;;;5069238;28;20028;-75
2024/03/16 01:55:34;;;;;;;7.50;1.63;;;16.90;99.90;;;;;;5069902;28;20114;-75
2024/03/16 01:58:00;;;;;;;8.63;1.75;;;16.90;99.90;;;;;;5070826;28;20032;-75
2024/03/16 02:00:29;;;;;;;5.27;2.20;;;16.90;99.90;;;;;;5065763;28;20020;-75
2024/03/16 02:02:54;;;;;;;8.20;2.97;;;16.90;99.90;;;;;;5069181;28;20020;-75
2024/03/16 02:05:20;;;;;;;6.90;1.70;;;16.90;99.90;;;;;;5070209;28;20033;-74
2024/03/16 02:07:50;;;;;;;8.63;2.47;;;16.80;99.90;;;;;;5070363;28;20048;-75
2024/03/16 02:10:16;;;;;;;6.10;2.22;;;16.80;99.90;;;;;;5069531;28;20077;-77
2024/03/16 02:12:42;;;;;;;9.60;2.28;;;16.80;99.90;;;;;;5070448;28;20028;-75
2024/03/16 02:15:08;;;;;;;9.13;2.00;;;16.80;99.90;;;;;;5070676;28;20029;-74
2024/03/16 02:17:35;;;;;;;7.53;1.73;;;16.80;99.90;;;;;;5070788;28;20047;-75
2024/03/16 02:20:03;;;;;;;7.57;2.00;;;16.80;99.90;;;;;;5069099;28;20139;-76
2024/03/16 02:22:29;;;;;;;8.70;1.90;;;16.80;99.90;;;;;;5068675;28;20137;-75
2024/03/16 02:24:55;;;;;;;6.60;1.90;;;16.80;99.90;;;;;;5070506;28;20089;-75
2024/03/16 02:27:21;;;;;;;5.40;1.45;;;16.80;99.90;;;;;;5068743;28;20041;-76
2024/03/16 02:29:47;;;;;;;4.87;1.50;;;16.80;99.90;;;;;;5069064;28;20028;-75
2024/03/16 02:32:14;;;;;;;4.63;1.40;;;16.80;99.90;;;;;;5070756;28;20056;-73
2024/03/16 02:34:41;;;;;;;5.57;2.38;;;16.70;99.90;;;;;;5070083;28;20477;-75
2024/03/16 02:37:07;;;;;;;7.20;1.83;;;16.70;99.90;;;;;;5071033;28;20031;-75
2024/03/16 02:39:34;;;;;;;6.55;1.95;;;16.70;99.90;;;;;;5069082;28;20123;-76
2024/03/16 02:42:00;;;;;;;10.57;1.90;;;16.70;99.90;;;;;;5070493;28;20020;-76
2024/03/16 02:44:26;;;;;;;5.70;1.30;;;16.70;99.90;;;;;;5068492;28;20032;-75
2024/03/16 02:46:53;;;;;;;6.97;1.95;;;16.70;99.90;;;;;;5070004;28;20086;-74
2024/03/16 02:49:21;;;;;;;8.45;2.20;;;16.70;99.90;;;;;;5067322;28;20082;-75
2024/03/16 02:51:47;;;;;;;3.80;1.48;;;16.70;99.90;;;;;;5069668;28;20024;-75
2024/03/16 02:54:13;;;;;;;5.32;1.52;;;16.60;99.90;;;;;;5068541;28;20678;-75
2024/03/16 02:56:39;;;;;;;9.18;1.23;;;16.60;99.90;;;;;;5070384;28;20096;-75
2024/03/16 02:59:05;;;;;;;3.63;1.40;;;16.60;99.90;;;;;;5068851;28;20858;-77
2024/03/16 03:01:31;;;;;;;6.38;1.95;;;16.60;99.90;;;;;;5068665;28;20086;-75
2024/03/16 03:03:57;;;;;;;7.18;1.60;;;16.60;99.90;;;;;;5070206;28;20029;-76
2024/03/16 03:06:25;;;;;;;4.73;1.73;;;16.60;99.90;;;;;;5070211;28;20454;-75
2024/03/16 03:08:51;;;;;;;6.50;1.33;;;16.60;99.90;;;;;;5068818;28;20028;-75
2024/03/16 03:11:17;;;;;;;5.40;1.53;;;16.60;99.90;;;;;;5068820;28;20477;-74
2024/03/16 03:13:44;;;;;;;6.77;1.40;;;16.60;99.90;;;;;;5070002;28;20579;-75
2024/03/16 03:16:10;;;;;;;8.88;1.35;;;16.60;99.90;;;;;;5068697;28;20058;-75
2024/03/16 03:18:35;;;;;;;4.03;1.40;;;16.60;99.90;;;;;;5068858;28;20029;-75
2024/03/16 03:21:02;;;;;;;5.33;1.73;;;16.60;99.90;;;;;;5067095;28;20043;-74
2024/03/16 03:23:28;;;;;;;3.13;1.20;;;16.60;99.90;;;;;;5068272;28;20151;-75
2024/03/16 03:25:54;;;;;;;6.15;1.60;;;16.60;99.90;;;;;;5069564;28;20035;-75
2024/03/16 03:28:20;;;;;;;2.60;1.13;;;16.50;99.90;;;;;;5068649;28;20025;-75
2024/03/16 03:30:48;;;;;;;7.10;1.63;;;16.50;99.90;;;;;;5068513;28;20033;-77
2024/03/16 03:33:14;;;;;;;4.05;1.25;;;16.50;99.90;;;;;;5068744;28;20025;-75
2024/03/16 03:35:40;;;;;;;4.60;1.23;;;16.50;99.90;;;;;;5069052;28;20019;-76
2024/03/16 03:38:07;;;;;;;5.67;1.20;;;16.50;99.90;;;;;;5069686;28;20116;-75
2024/03/16 03:40:33;;;;;;;4.20;1.20;;;16.50;99.90;;;;;;5069885;28;20017;-75
2024/03/16 03:43:01;;;;;;;4.83;1.00;;;16.50;99.90;;;;;;5067996;28;20033;-76
2024/03/16 03:45:37;;;;;;;2.38;0.82;;;16.50;99.90;;;;;;5068319;28;20039;-75
2024/03/16 03:48:24;;;;;;;4.43;1.20;;;16.40;99.90;;;;;;5069489;28;20023;-75
2024/03/16 03:50:50;;;;;;;2.50;1.40;;;16.50;99.90;;;;;;5068457;28;20040;-76
2024/03/16 03:53:17;;;;;;;3.83;1.07;;;16.40;99.90;;;;;;5069786;28;20035;-76
2024/03/16 03:55:43;;;;;;;2.45;0.60;;;16.40;99.90;;;;;;5069531;28;20366;-75
2024/03/16 03:58:09;;;;;;;2.88;1.00;;;16.40;99.90;;;;;;5069148;28;20101;-75
2024/03/16 04:00:34;;;;;;;4.40;1.30;;;16.40;99.90;;;;;;5069471;28;20017;-76
2024/03/16 04:03:01;;;;;;;3.10;0.97;;;16.40;99.90;;;;;;5073281;28;20042;-77
2024/03/16 04:05:29;;;;;;;2.45;0.90;;;16.40;99.90;;;;;;5072855;28;20033;-74
2024/03/16 04:07:55;;;;;;;5.05;1.10;;;16.40;99.90;;;;;;5073110;28;20039;-75
2024/03/16 04:10:21;;;;;;;3.10;0.80;;;16.40;99.90;;;;;;5059267;28;20016;-76
2024/03/16 04:12:47;;;;;;;3.10;0.75;;;16.40;99.90;;;;;;5071786;28;20020;-75
2024/03/16 04:15:14;;;;;;;3.85;1.02;;;16.40;99.90;;;;;;5071368;28;20056;-76
2024/03/16 04:17:40;;;;;;;2.35;1.00;;;16.40;99.90;;;;;;5072521;28;20020;-75
2024/03/16 04:20:10;;;;;;;5.77;1.07;;;16.30;99.90;;;;;;5071157;28;20088;-75
2024/03/16 04:22:45;;;;;;;4.40;0.90;;;16.30;99.90;;;;;;5073075;28;20049;-77
2024/03/16 04:25:14;;;;;;;4.20;1.05;;;16.30;99.90;;;;;;5071338;28;20080;-75
2024/03/16 04:27:41;;;;;;;4.07;1.10;;;16.30;99.90;;;;;;5072792;28;20032;-75
2024/03/16 04:30:08;;;;;;;1.42;0.52;;;16.30;99.90;;;;;;5072899;28;20024;-75
2024/03/16 04:32:35;;;;;;;3.90;1.40;;;16.30;99.90;;;;;;5072500;28;20043;-74
2024/03/16 04:35:01;;;;;;;;;;;16.30;99.90;;;;;;5072679;28;20035;-74
2024/03/16 04:37:27;;;;;;;3.22;0.85;;;16.30;99.90;;;;;;5072693;28;19904;-75
2024/03/16 04:39:55;;;;;;;2.97;0.90;;;16.30;99.90;;;;;;5072380;28;20051;-76
2024/03/16 04:42:21;;;;;;;3.78;0.75;;;16.30;99.90;;;;;;5070932;28;20265;-76
2024/03/16 04:44:47;;;;;;;1.83;0.70;;;16.30;99.90;;;;;;5064215;28;20029;-74
2024/03/16 04:47:13;;;;;;;2.80;1.13;;;16.20;99.90;;;;;;5066656;28;20115;-74
2024/03/16 04:49:39;;;;;;;2.78;1.05;;;16.30;99.90;;;;;;5072530;28;20092;-76
2024/03/16 04:52:04;;;;;;;1.30;0.80;;;16.20;99.90;;;;;;5070765;28;20186;-75
2024/03/16 04:54:30;;;;;;;2.87;1.03;;;16.30;99.90;;;;;;5070395;28;20028;-75
2024/03/16 04:56:56;;;;;;;4.70;1.07;;;16.20;99.90;;;;;;5070733;28;20119;-74
2024/03/16 04:59:21;;;;;;;2.33;0.77;;;16.20;99.90;;;;;;5071715;28;20051;-75
2024/03/16 05:01:47;;;;;;;3.87;1.00;;;16.20;99.90;;;;;;5071565;28;20347;-75
2024/03/16 05:04:13;;;;;;;2.03;0.50;;;16.20;99.90;;;;;;5070351;28;20021;-76
2024/03/16 05:06:40;;;;;;;3.77;1.00;;;16.20;99.90;;;;;;5071580;28;20107;-75
2024/03/16 05:09:08;;;;;;;5.00;1.00;;;16.20;99.90;;;;;;5071612;28;20103;-75
2024/03/16 05:11:34;;;;;;;1.50;0.75;;;16.20;99.90;;;;;;5070073;28;20031;-75
2024/03/16 05:14:06;;;;;;;3.42;0.98;;;16.20;99.90;;;;;;5072196;28;20039;-76
2024/03/16 05:16:33;;;;;;;5.90;0.70;;;16.20;99.90;;;;;;5070087;28;20047;-77
2024/03/16 05:19:02;;;;;;;2.97;0.95;;;16.20;99.90;;;;;;5070446;28;20033;-75
2024/03/16 05:21:28;;;;;;;2.30;0.70;;;16.10;99.90;;;;;;5070521;28;20385;-75
2024/03/16 05:23:54;;;;;;;5.10;0.90;;;16.20;99.90;;;;;;5070050;28;20036;-75
2024/03/16 05:26:20;;;;;;;2.67;0.80;;;16.10;99.90;;;;;;5071649;28;20028;-76
2024/03/16 05:28:45;;;;;;;5.10;0.90;;;16.10;99.90;;;;;;5071296;28;20765;-76
2024/03/16 05:31:11;;;;;;;3.20;0.93;;;16.10;99.90;;;;;;5070197;28;20075;-75
2024/03/16 05:33:37;;;;;;;2.40;0.93;;;16.10;99.90;;;;;;5070142;28;20449;-75
2024/03/16 05:36:05;;;;;;;3.27;1.03;;;16.10;99.90;;;;;;5071443;28;20449;-75
2024/03/16 05:38:32;;;;;;;2.65;0.75;;;16.10;99.90;;;;;;5071652;28;20029;-75
2024/03/16 05:40:58;;;;;;;;;;;16.10;99.90;;;;;;5071780;28;20099;-75
2024/03/16 05:43:24;;;;;;;;;;;16.10;99.90;;;;;;5070428;28;19981;-75
2024/03/16 05:45:50;;;;;;;3.28;0.60;;;16.10;99.90;;;;;;5069371;28;20006;-75
2024/03/16 05:48:17;;;;;;;2.85;0.73;;;16.00;99.90;;;;;;5071418;28;20575;-74
2024/03/16 05:50:48;;;;;;;;;;;16.10;99.90;;;;;;5070173;28;20021;-74
2024/03/16 05:53:14;;;;;;;7.10;0.88;;;16.00;99.90;;;;;;5070107;28;19943;-74
2024/03/16 05:55:40;;;;;;;1.13;0.60;;;16.00;99.90;;;;;;5071123;28;20062;-74
2024/03/16 05:58:06;;;;;;;2.00;0.80;;;16.00;99.90;;;;;;5067322;28;20036;-75
2024/03/16 06:00:32;;;;;;;0.77;0.70;;;16.00;99.90;;;;;;5070812;28;20114;-75
2024/03/16 06:02:59;;;;;;;4.18;1.00;;;16.00;99.90;;;;;;5070215;28;20052;-73
2024/03/16 06:05:25;;;;;;;3.00;1.10;;;16.00;99.90;;;;;;5069248;28;20115;-74
2024/03/16 06:07:51;;;;;;;3.03;0.80;;;16.00;99.90;;;;;;5070086;28;20028;-74
2024/03/16 06:10:17;;;;;;;3.00;0.93;;;16.00;99.90;;;;;;5070315;28;20024;-75
2024/03/16 06:12:42;;;;;;;0.80;0.50;;;16.00;99.90;;;;;;5069308;28;20407;-73
2024/03/16 06:15:08;;;;;;;1.30;0.60;;;16.00;99.90;;;;;;5070386;28;20462;-76
2024/03/16 06:17:34;;;;;;;2.40;0.70;;;16.00;99.90;;;;;;5070480;28;20020;-74
2024/03/16 06:20:00;;;;;;;3.03;1.07;;;16.00;99.90;;;;;;5068987;28;20024;-73
2024/03/16 06:22:26;;;;;;;0.80;0.40;;;16.00;99.90;;;;;;5069897;28;20118;-74
2024/03/16 06:24:52;;;;;;;5.13;0.70;;;16.00;99.90;;;;;;5068811;28;20273;-74
2024/03/16 06:27:21;;;;;;;5.50;0.57;;;16.00;99.90;;;;;;5070409;28;20557;-75
2024/03/16 06:29:52;;;;;;;3.05;0.57;;;15.90;99.90;;;;;;5068687;28;20111;-74
2024/03/16 06:32:20;;;;;;;2.53;0.60;;;15.90;99.90;;;;;;5070377;28;20020;-74
2024/03/16 06:34:49;;;;;;;2.80;0.60;;;15.90;99.90;;;;;;5070513;28;20115;-77
2024/03/16 06:37:17;;;;;;;3.58;0.75;;;15.90;99.90;;;;;;5068626;28;20462;-74
2024/03/16 06:39:43;;;;;;;5.15;0.82;;;15.90;99.90;;;;;;5068504;28;20024;-75
2024/03/16 06:42:11;;;;;;;2.13;0.73;;;15.90;99.90;;;;;;5068330;28;20592;-77
2024/03/16 06:44:37;;;;;;;1.90;0.63;;;15.90;99.90;;;;;;5068777;28;20078;-77
2024/03/16 06:47:04;;;;;;;2.17;0.52;;;15.90;99.90;;;;;;5069817;28;20036;-74
2024/03/16 06:49:30;;;;;;;2.20;0.63;;;15.90;99.90;;;;;;5069223;28;20541;-76
2024/03/16 06:51:55;;;;;;;1.97;1.37;;;15.90;99.90;;;;;;5069710;28;20104;-76
2024/03/16 06:54:21;;;;;;;4.00;0.90;;;15.90;99.90;;;;;;5070132;28;20450;-75
2024/03/16 06:56:47;;;;;;;2.83;0.83;;;15.90;99.90;;;;;;5069093;28;20051;-77
2024/03/16 06:59:12;;;;;;;2.23;0.43;;;15.90;99.90;;;;;;5068640;28;20812;-74
2024/03/16 07:01:38;;;;;;;1.77;0.63;;;15.90;99.90;;;;;;5068428;28;20040;-74
2024/03/16 07:04:04;;;;;;;2.97;0.80;;;15.90;99.90;;;;;;5069928;28;20020;-75
2024/03/16 07:06:30;;;;;;;1.43;0.50;;;15.90;99.90;;;;;;5069688;28;20025;-75
2024/03/16 07:08:57;;;;;;;3.37;0.77;;;15.90;99.90;;;;;;5069472;28;20068;-76
2024/03/16 07:11:23;;;;;;;4.10;1.42;;;15.90;99.90;;;;;;5067945;28;20077;-77
2024/03/16 07:13:49;;;;;;;5.23;0.93;;;15.90;99.90;;;;;;5068623;28;20024;-74
2024/03/16 07:16:15;;;;;;;2.67;1.00;;;15.90;99.90;;;;;;5068599;28;20059;-74
2024/03/16 07:18:44;;;;;;;2.60;0.80;;;15.90;99.90;;;;;;5068837;28;20477;-74
2024/03/16 07:21:10;;;;;;;2.20;0.60;;;15.90;99.90;;;;;;5069621;28;20029;-75
2024/03/16 07:23:36;;;;;;;7.60;0.80;;;15.90;99.90;;;;;;5069296;28;20041;-77
2024/03/16 07:26:02;;;;;;;2.53;0.63;;;15.90;99.90;;;;;;5069942;28;20029;-77
2024/03/16 07:28:29;;;;;;;0.88;0.35;;;15.90;99.90;;;;;;5068040;28;20381;-75
2024/03/16 07:30:58;;;;;;;3.78;0.80;;;15.90;99.90;;;;;;5070158;28;20027;-75
2024/03/16 07:33:23;;;;;;;3.80;0.70;;;15.90;99.90;;;;;;5069479;28;20060;-74
2024/03/16 07:35:50;;;;;;;2.07;0.70;;;15.90;99.90;;;;;;5072473;28;20125;-76
2024/03/16 07:38:19;;;;;;;2.88;0.63;;;16.00;99.90;;;;;;5073526;28;20035;-75
2024/03/16 07:40:45;;;;;;;1.70;0.60;;;15.90;99.90;;;;;;5073562;28;20027;-77
2024/03/16 07:43:11;;;;;;;2.23;0.53;;;15.90;99.90;;;;;;5073587;28;20020;-75
2024/03/16 07:45:42;;;;;;;4.13;0.70;;;16.00;99.90;;;;;;5072952;28;20029;-74
2024/03/16 07:48:08;;;;;;;2.05;0.63;;;16.00;99.90;;;;;;5071694;28;20029;-76
2024/03/16 07:50:37;;;;;;;2.78;0.47;;;15.90;99.90;;;;;;5073407;28;20016;-78
2024/03/16 07:53:03;;;;;;;4.40;0.82;;;15.90;99.90;;;;;;5059779;28;20028;-75
2024/03/16 07:55:30;;;;;;;2.93;0.60;;;16.00;99.90;;;;;;5071787;28;20119;-74
2024/03/16 07:57:56;;;;;;;9.23;0.65;;;16.00;99.90;;;;;;5071200;28;20781;-75
2024/03/16 08:00:21;;;;;;;6.37;0.97;;;16.00;99.90;;;;;;5073296;28;20035;-74
2024/03/16 08:02:47;;;;;;;3.73;0.70;;;16.00;99.90;;;;;;5071661;28;20017;-74
2024/03/16 08:05:14;;;;;;;3.37;0.70;;;16.00;99.90;;;;;;5071579;28;20132;-75
2024/03/16 08:07:41;;;;;;;8.60;1.15;;;16.00;99.90;;;;;;5071404;28;20704;-76
2024/03/16 08:10:09;;;;;;;3.05;1.00;;;16.00;99.90;;;;;;5071155;28;20035;-75
2024/03/16 08:12:38;;;;;;;4.07;0.93;;;16.00;99.90;;;;;;5071775;28;20039;-75
2024/03/16 08:15:05;;;;;;;5.60;0.82;;;16.00;99.90;;;;;;5072665;28;20070;-76
2024/03/16 08:17:31;;;;;;;7.95;0.80;;;16.00;99.90;;;;;;5072485;28;20450;-74
2024/03/16 08:19:57;;;;;;;1.80;0.60;;;16.10;99.90;;;;;;5072346;28;20031;-75
2024/03/16 08:22:23;;;;;;;2.03;0.70;;;16.10;99.90;;;;;;5072154;28;20036;-75
2024/03/16 08:24:49;;;;;;;3.17;0.53;;;16.10;99.90;;;;;;5072544;28;20033;-75
2024/03/16 08:27:16;;;;;;;3.60;0.70;;;16.10;99.90;;;;;;5071248;28;20056;-74
2024/03/16 08:29:41;;;;;;;2.80;1.00;;;16.10;99.90;;;;;;5071026;28;20035;-74
2024/03/16 08:32:10;;;;;;;2.30;0.70;;;16.10;99.90;;;;;;5071169;28;20020;-74
2024/03/16 08:34:35;;;;;;;6.95;0.93;;;16.10;99.90;;;;;;5072672;28;20032;-74
2024/03/16 08:37:02;;;;;;;2.47;0.60;;;16.10;99.90;;;;;;5072542;28;20040;-75
2024/03/16 08:39:27;;;;;;;2.83;0.60;;;16.10;99.90;;;;;;5072576;28;20073;-74
2024/03/16 08:41:53;;;;;;;5.37;0.87;;;16.10;99.90;;;;;;5071384;28;20424;-75
2024/03/16 08:44:19;;;;;;;4.80;0.73;;;16.10;99.90;;;;;;5072212;28;20024;-75
2024/03/16 08:46:45;;;;;;;4.13;0.68;;;16.10;99.90;;;;;;5070197;28;20031;-74
2024/03/16 08:49:11;;;;;;;5.00;0.67;;;16.10;99.90;;;;;;5071980;28;20028;-75
2024/03/16 08:51:37;;;;;;;5.27;0.83;;;16.20;99.90;;;;;;5072604;28;20020;-75
2024/03/16 08:54:05;;;;;;;7.97;0.80;;;16.20;99.90;;;;;;5070217;28;20031;-74
2024/03/16 08:56:31;;;;;;;10.27;1.83;;;16.40;99.90;;;;;;5071573;28;20263;-74
2024/03/16 08:58:57;;;;;;;5.55;0.70;;;16.40;99.90;;;;;;5070660;28;20489;-77
2024/03/16 09:01:23;;;;;;;5.55;1.25;;;16.40;99.90;;;;;;5070469;28;20031;-74
2024/03/16 09:03:49;;;;;;;5.93;1.27;;;16.30;99.90;;;;;;5072326;28;20016;-73
2024/03/16 09:06:15;;;;;;;6.90;2.80;;;16.30;99.90;;;;;;5070245;28;20025;-74
2024/03/16 09:08:41;;;;;;;5.07;2.63;;;16.30;99.90;;;;;;5072149;28;20028;-75
2024/03/16 09:11:07;;;;;;;4.40;2.10;;;16.30;99.90;;;;;;5072195;28;20033;-76
2024/03/16 09:13:36;;;;;;;7.57;1.60;;;16.30;99.90;;;;;;5071854;28;20022;-74
2024/03/16 09:16:05;;;;;;;171.55;140.95;;;16.20;99.90;;;;;;5070233;28;20028;-73
2024/03/16 09:18:32;;;;;;;33.05;27.88;;;16.10;99.90;;;;;;5070554;28;20040;-74
2024/03/16 09:20:58;;;;;;;29.65;22.58;;;16.20;99.90;;;;;;5071723;28;20028;-74
2024/03/16 09:23:23;;;;;;;38.40;28.27;;;16.20;99.90;;;;;;5069577;28;20036;-73
2024/03/16 09:25:56;;;;;;;141.17;97.10;;;16.20;99.90;;;;;;5069778;28;20029;-74
2024/03/16 09:28:22;;;;;;;141.45;92.47;;;16.20;99.90;;;;;;5068182;28;20111;-74
2024/03/16 09:30:48;;;;;;;77.25;51.53;;;16.30;99.90;;;;;;5069675;28;20042;-74
2024/03/16 09:33:15;;;;;;;63.33;45.85;;;16.20;99.90;;;;;;5069814;28;20097;-73
2024/03/16 09:35:42;;;;;;;65.78;45.13;;;16.30;99.90;;;;;;5071148;28;20055;-73
2024/03/16 09:38:08;;;;;;;62.92;41.70;;;16.40;99.90;;;;;;5071029;28;20035;-74
2024/03/16 09:40:43;;;;;;;61.37;40.07;;;16.40;99.90;;;;;;5070994;28;20024;-75
2024/03/16 09:43:12;;;;;;;54.65;37.20;;;16.40;99.90;;;;;;5070938;28;20288;-74
2024/03/16 09:45:40;;;;;;;57.72;37.45;;;16.50;99.90;;;;;;5069514;28;20389;-74
2024/03/16 09:48:12;;;;;;;54.83;35.53;;;16.50;99.90;;;;;;5069812;28;20088;-74
2024/03/16 09:50:44;;;;;;;44.88;32.80;;;16.50;99.90;;;;;;5070259;28;20541;-73
2024/03/16 09:53:28;;;;;;;45.60;31.02;;;16.50;99.90;;;;;;5056877;28;20024;-73
2024/03/16 09:55:56;;;;;;;48.72;31.40;;;16.50;99.90;;;;;;5071024;28;20078;-74
2024/03/16 09:58:25;;;;;;;41.53;30.05;;;16.50;99.90;;;;;;5069487;28;20024;-75
2024/03/16 10:00:53;;;;;;;37.95;28.42;;;16.50;99.90;;;;;;5070770;28;20103;-74
2024/03/16 10:03:19;;;;;;;33.63;26.10;;;16.50;99.90;;;;;;5069421;28;20399;-75
2024/03/16 10:05:48;;;;;;;34.28;26.23;;;16.50;99.90;;;;;;5069059;28;20082;-75
2024/03/16 10:08:17;;;;;;;34.78;25.42;;;16.40;99.90;;;;;;5068524;28;20055;-73
2024/03/16 10:10:46;;;;;;;32.88;22.90;;;16.40;99.90;;;;;;5070740;28;20074;-74
2024/03/16 10:13:12;;;;;;;33.10;21.73;;;16.40;99.90;;;;;;5070486;28;20082;-74
2024/03/16 10:15:44;;;;;;;58.77;36.33;;;16.40;99.90;;;;;;5069319;28;20461;-74
2024/03/16 10:18:14;;;;;;;65.25;40.30;;;16.40;99.90;;;;;;5070174;28;20040;-74
2024/03/16 10:20:43;;;;;;;50.08;32.15;;;16.40;99.90;;;;;;5070902;28;20527;-74
2024/03/16 10:23:19;;;;;;;41.50;27.73;;;16.50;99.90;;;;;;5070035;28;20052;-74
2024/03/16 10:25:46;;;;;;;41.30;26.88;;;16.50;99.90;;;;;;5069478;28;20052;-74
2024/03/16 10:28:15;;;;;;;42.03;25.40;;;16.60;99.90;;;;;;5069040;28;20039;-73
2024/03/16 10:30:45;;;;;;;43.13;25.77;;;16.60;99.90;;;;;;5068917;28;20032;-75
2024/03/16 10:33:11;;;;;;;37.85;23.73;;;16.60;99.90;;;;;;5070740;28;20042;-75
2024/03/16 10:35:39;;;;;;;40.58;23.17;;;16.70;99.90;;;;;;5068793;28;20040;-75
2024/03/16 10:38:16;;;;;;;35.22;23.30;;;16.70;99.90;;;;;;5069106;28;20086;-73
2024/03/16 10:40:43;;;;;;;33.78;22.35;;;16.70;99.90;;;;;;5070603;28;20103;-74
2024/03/16 10:43:13;;;;;;;32.50;21.27;;;16.80;99.90;;;;;;5068514;28;20029;-74
2024/03/16 10:45:47;;;;;;;35.08;21.10;;;16.80;99.90;;;;;;5068761;28;20090;-73
2024/03/16 10:48:18;;;;;;;32.55;20.00;;;16.80;99.90;;;;;;5069100;28;20024;-75
2024/03/16 10:50:46;;;;;;;29.20;18.65;;;16.80;99.90;;;;;;5070160;28;20049;-74
2024/03/16 10:53:13;;;;;;;30.70;17.25;;;16.80;99.90;;;;;;5070035;28;20366;-75
2024/03/16 10:55:40;;;;;;;33.75;20.45;;;16.80;99.90;;;;;;5069416;28;20334;-73
2024/03/16 10:58:19;;;;;;;31.13;16.90;;;16.80;99.90;;;;;;5070110;28;20032;-72
2024/03/16 11:00:45;;;;;;;25.05;16.20;;;16.80;99.90;;;;;;5068617;28;20035;-74
2024/03/16 11:03:22;;;;;;;29.23;16.43;;;16.80;99.90;;;;;;5068617;28;20024;-74
2024/03/16 11:05:54;;;;;;;;;;;16.90;99.90;;;;;;5068839;28;20032;-73
2024/03/16 11:08:21;;;;;;;28.48;15.25;;;17.00;99.90;;;;;;5070150;28;19915;-73
2024/03/16 11:10:52;;;;;;;23.85;14.65;;;17.00;99.90;;;;;;5073362;28;20131;-73
2024/03/16 11:13:21;;;;;;;22.10;14.57;;;17.00;99.90;;;;;;5072677;28;20016;-74
2024/03/16 11:15:47;;;;;;;21.92;13.70;;;17.10;99.90;;;;;;5072376;28;20024;-73
2024/03/16 11:18:16;;;;;;;;;;;17.10;99.90;;;;;;5074623;28;20020;-72
2024/03/16 11:20:43;;;;;;;21.17;12.18;;;17.10;99.90;;;;;;5073782;28;20038;-73
2024/03/16 11:23:23;;;;;;;26.80;13.20;;;17.10;99.90;;;;;;5071651;28;20055;-72
2024/03/16 11:25:49;;;;;;;20.40;12.25;;;17.10;99.90;;;;;;5073823;28;20036;-73
2024/03/16 11:28:15;;;;;;;19.08;11.32;;;17.20;99.90;;;;;;5073967;28;20024;-74
2024/03/16 11:30:41;;;;;;;20.10;11.70;;;17.20;99.90;;;;;;5073454;28;20480;-75
2024/03/16 11:33:33;;;;;;;16.77;11.10;;;17.20;99.90;;;;;;5073651;28;20032;-73
2024/03/16 11:36:02;;;;;;;20.02;11.48;;;17.20;99.90;;;;;;5070847;28;20033;-73
2024/03/16 11:38:27;;;;;;;18.20;10.80;;;17.30;99.90;;;;;;5073167;28;20527;-73
2024/03/16 11:40:54;;;;;;;291.70;172.20;;;17.30;99.90;;;;;;5073577;28;20020;-73
2024/03/16 11:43:20;;;;;;;77.10;43.88;;;17.30;99.90;;;;;;5072147;28;20024;-75
2024/03/16 11:45:49;;;;;;;68.20;39.73;;;17.30;99.90;;;;;;5072061;28;20515;-74
2024/03/16 11:48:16;;;;;;;74.32;42.72;;;17.40;99.90;;;;;;5073576;28;20021;-73
2024/03/16 11:50:43;;;;;;;61.85;38.47;;;17.50;99.90;;;;;;5071840;28;20029;-74
2024/03/16 11:53:09;;;;;;;63.35;34.70;;;17.40;99.90;;;;;;5069592;28;20025;-74
2024/03/16 11:55:36;;;;;;;53.47;32.00;;;17.50;99.90;;;;;;5073794;28;20044;-74
2024/03/16 11:58:05;;;;;;;52.55;31.13;;;17.40;99.90;;;;;;5073343;28;20029;-74
2024/03/16 12:00:31;;;;;;;55.80;30.65;;;17.40;99.90;;;;;;5072737;28;20029;-74
2024/03/16 12:03:00;;;;;;;50.88;27.88;;;17.40;99.90;;;;;;5073207;28;20028;-73
2024/03/16 12:05:27;;;;;;;52.17;27.25;;;17.40;99.90;;;;;;5072930;28;20150;-74
2024/03/16 12:07:54;;;;;;;49.92;27.30;;;17.30;99.90;;;;;;5071779;28;20013;-74
2024/03/16 12:10:23;;;;;;;43.40;25.58;;;17.30;99.90;;;;;;5072096;28;20111;-73
2024/03/16 12:12:52;;;;;;;46.63;24.02;;;17.30;99.90;;;;;;5072271;28;20380;-74
2024/03/16 12:15:22;;;;;;;51.78;25.00;;;17.40;99.90;;;;;;5072757;28;20020;-73
2024/03/16 12:17:48;;;;;;;42.40;23.23;;;17.50;99.90;;;;;;5072647;28;20346;-76
2024/03/16 12:20:17;;;;;;;43.30;23.52;;;17.50;99.90;;;;;;5071833;28;20036;-72
2024/03/16 12:22:44;;;;;;;39.92;22.40;;;17.50;99.90;;;;;;5070361;28;20048;-75
2024/03/16 12:25:10;;;;;;;38.95;22.73;;;17.50;99.90;;;;;;5070950;28;20040;-73
2024/03/16 12:27:41;;;;;;;;;;;17.60;99.90;;;;;;5072336;28;20798;-73
2024/03/16 12:30:10;;;;;;;32.85;18.85;;;17.60;99.90;;;;;;5071987;28;19959;-74
2024/03/16 12:32:36;;;;;;;32.33;19.83;;;17.60;99.90;;;;;;5071964;28;20017;-71
2024/03/16 12:35:04;;;;;;;35.75;19.75;;;17.60;99.90;;;;;;5060292;28;20122;-72
2024/03/16 12:37:30;;;;;;;33.60;19.67;;;17.60;99.90;;;;;;5070467;28;20048;-72
2024/03/16 12:39:57;;;;;;;32.25;18.92;;;17.70;99.90;;;;;;5070910;28;20101;-73
2024/03/16 12:42:23;;;;;;;40.33;20.63;;;17.70;99.90;;;;;;5071832;28;20028;-76